Pooleville, Oklahoma
Current Conditions -  °F | °C
As of 12:35 PM on Saturday 25 Oct 2014 (Local Time) from K1F0 Reporting Station
Clear Clear  
Wind Chill: 82°   Ceiling: Unl
Heat Index: 82°   Visibility: 10mi
Dew Point: 57°   Wind: 0mph
Humidity: 42%   Direction: NA
Pressure: 30.1"   Gusts: NA
Location:  34.2137°N, 97.1822°W
Report Text: K1F0 251735Z AUTO 00000KT 10SM CLR 28/14 A3010 RMK AO2
Loading
Personal Weather Stations






























Interactive Weather Map
Tropical Storm Tracking
New forecast layout! Learn more

10-Day Weather Forecast

Advertisements
Track Severe Weather on mobile